createdAt,value
2022-11-13T00:01:13.240Z,3.00
2022-11-13T00:03:41.503Z,2.80
2022-11-13T00:06:11.174Z,4.00
2022-11-13T00:08:39.906Z,2.90
2022-11-13T00:11:09.924Z,2.80
2022-11-13T00:13:38.156Z,2.80
2022-11-13T00:16:08.498Z,2.80
2022-11-13T00:18:38.805Z,2.80
2022-11-13T00:21:07.447Z,2.70
2022-11-13T00:23:36.324Z,2.70
2022-11-13T00:26:09.125Z,4.50
2022-11-13T00:28:37.409Z,2.90
2022-11-13T00:31:06.638Z,2.70
2022-11-13T00:36:27.180Z,4.50
2022-11-13T00:38:55.864Z,2.70
2022-11-13T00:41:24.569Z,2.70
2022-11-13T00:43:52.810Z,2.70
2022-11-13T00:46:20.979Z,2.70
2022-11-13T00:48:49.079Z,2.80
2022-11-13T00:51:17.123Z,2.70
2022-11-13T00:53:46.563Z,2.70
2022-11-13T00:56:14.579Z,3.80
2022-11-13T00:58:42.698Z,3.50
2022-11-13T01:01:13.520Z,2.80
2022-11-13T01:03:41.902Z,2.60
2022-11-13T01:06:15.778Z,2.60
2022-11-13T01:08:43.828Z,2.60
2022-11-13T01:11:16.261Z,2.50
2022-11-13T01:13:46.525Z,2.50
2022-11-13T01:16:16.093Z,2.50
2022-11-13T01:18:44.559Z,2.50
2022-11-13T01:21:14.821Z,2.50
2022-11-13T01:23:43.960Z,2.40
2022-11-13T01:26:15.405Z,2.50
2022-11-13T01:28:44.468Z,2.50
2022-11-13T01:31:14.506Z,2.40
2022-11-13T01:33:42.706Z,2.40
2022-11-13T01:36:13.974Z,2.40
2022-11-13T01:38:42.150Z,2.40
2022-11-13T01:41:22.889Z,2.40
2022-11-13T01:43:53.119Z,2.30
2022-11-13T01:46:25.954Z,2.40
2022-11-13T01:48:59.072Z,2.40
2022-11-13T01:51:31.066Z,2.40
2022-11-13T01:54:00.053Z,2.40
2022-11-13T01:56:30.493Z,2.40
2022-11-13T01:59:04.187Z,2.40
2022-11-13T02:01:32.403Z,2.40
2022-11-13T02:04:00.505Z,2.40
2022-11-13T02:06:34.238Z,2.30
2022-11-13T02:09:02.363Z,2.30
2022-11-13T02:11:31.766Z,2.30
2022-11-13T02:14:00.917Z,2.40
2022-11-13T02:16:31.054Z,2.30
2022-11-13T02:18:59.769Z,2.30
2022-11-13T02:21:36.585Z,2.30
2022-11-13T02:24:18.125Z,2.30
2022-11-13T02:26:46.342Z,2.20
2022-11-13T02:29:14.337Z,2.30
2022-11-13T02:31:42.333Z,2.20
2022-11-13T02:34:10.458Z,2.20
2022-11-13T02:36:38.469Z,2.20
2022-11-13T02:39:11.615Z,2.20
2022-11-13T02:41:39.758Z,2.20
2022-11-13T02:44:08.336Z,2.10
2022-11-13T02:46:36.477Z,2.10
2022-11-13T02:51:32.918Z,2.10
2022-11-13T02:54:01.160Z,2.10
2022-11-13T02:56:30.610Z,2.10
2022-11-13T02:58:58.698Z,2.10
2022-11-13T03:01:26.797Z,2.10
2022-11-13T03:03:57.741Z,2.10
2022-11-13T03:06:26.611Z,2.10
2022-11-13T03:08:54.654Z,2.10
2022-11-13T03:13:52.534Z,2.10
2022-11-13T03:16:20.643Z,4.30
2022-11-13T03:18:48.868Z,2.20
2022-11-13T03:21:17.165Z,2.10
2022-11-13T03:23:46.124Z,2.10
2022-11-13T03:26:17.265Z,2.20
2022-11-13T03:28:45.505Z,2.10
2022-11-13T03:31:15.479Z,2.10
2022-11-13T03:33:44.022Z,2.60
2022-11-13T03:36:12.034Z,3.20
2022-11-13T03:38:40.185Z,2.10
2022-11-13T03:41:08.216Z,3.20
2022-11-13T03:43:36.275Z,2.10
2022-11-13T03:46:04.365Z,2.00
2022-11-13T03:48:33.897Z,2.00
2022-11-13T03:53:30.540Z,2.00
2022-11-13T03:58:27.675Z,1.90
2022-11-13T04:00:56.833Z,1.90
2022-11-13T04:03:25.088Z,1.80
2022-11-13T04:05:54.548Z,1.80
2022-11-13T04:08:22.769Z,1.80
2022-11-13T04:10:50.785Z,1.70
2022-11-13T04:13:18.814Z,1.70
2022-11-13T04:15:46.883Z,1.70
2022-11-13T04:18:14.946Z,1.70
2022-11-13T04:23:14.381Z,1.70
2022-11-13T04:28:11.273Z,1.60
2022-11-13T04:30:39.424Z,1.60
2022-11-13T04:33:07.665Z,1.50
2022-11-13T04:38:04.185Z,1.40
2022-11-13T04:40:33.686Z,1.40
2022-11-13T04:45:29.114Z,1.40
2022-11-13T04:47:57.156Z,1.40
2022-11-13T04:57:55.505Z,1.30
2022-11-13T05:00:23.911Z,1.30
2022-11-13T05:02:52.017Z,1.30
2022-11-13T05:05:19.991Z,1.40
2022-11-13T05:10:42.759Z,1.30
2022-11-13T05:13:16.655Z,1.30
2022-11-13T05:15:44.718Z,1.30
2022-11-13T05:20:41.297Z,-0.90
2022-11-13T05:30:36.239Z,1.30
2022-11-13T05:40:30.919Z,1.20
2022-11-13T05:42:59.030Z,1.10
2022-11-13T05:45:27.077Z,1.10
2022-11-13T05:47:56.503Z,1.10
2022-11-13T05:52:53.353Z,1.10
2022-11-13T06:00:20.575Z,1.10
2022-11-13T06:05:18.374Z,1.10
2022-11-13T06:07:46.439Z,1.00
2022-11-13T06:10:14.841Z,1.10
2022-11-13T06:15:11.773Z,1.00
2022-11-13T06:20:09.117Z,1.00
2022-11-13T06:22:38.437Z,1.00
2022-11-13T06:25:07.489Z,1.00
2022-11-13T06:30:03.973Z,1.00
2022-11-13T06:32:31.958Z,1.00
2022-11-13T06:34:59.928Z,1.00
2022-11-13T06:40:04.212Z,1.00
2022-11-13T06:45:00.645Z,1.20
2022-11-13T06:47:29.465Z,1.20
2022-11-13T06:49:57.455Z,1.20
2022-11-13T06:57:23.628Z,1.20
2022-11-13T06:59:51.706Z,1.20
2022-11-13T07:02:19.752Z,1.20
2022-11-13T07:07:16.355Z,1.30
2022-11-13T07:09:44.489Z,1.30
2022-11-13T07:12:12.523Z,1.40
2022-11-13T07:14:41.994Z,1.40
2022-11-13T07:19:38.969Z,1.50
2022-11-13T07:22:06.998Z,1.60
2022-11-13T07:24:35.052Z,1.60
2022-11-13T07:27:03.054Z,1.70
2022-11-13T07:32:00.820Z,1.80
2022-11-13T07:36:57.277Z,1.90
2022-11-13T07:41:53.759Z,2.00
2022-11-13T07:44:47.781Z,2.00
2022-11-13T07:47:11.236Z,2.10
2022-11-13T07:49:39.270Z,2.20
2022-11-13T07:52:07.269Z,2.20
2022-11-13T07:54:35.296Z,2.30
2022-11-13T07:57:03.298Z,2.40
2022-11-13T07:59:31.301Z,2.50
2022-11-13T08:01:59.295Z,2.60
2022-11-13T08:04:30.552Z,2.60
2022-11-13T08:09:27.105Z,2.70
2022-11-13T08:11:55.041Z,2.80
2022-11-13T08:21:49.833Z,2.80
2022-11-13T08:26:46.246Z,2.90
2022-11-13T08:34:11.078Z,3.00
2022-11-13T08:36:39.115Z,3.00
2022-11-13T08:39:09.875Z,3.00
2022-11-13T08:41:37.909Z,3.00
2022-11-13T08:44:06.165Z,3.10
2022-11-13T08:46:34.153Z,3.10
2022-11-13T08:49:02.233Z,3.10
2022-11-13T08:51:30.306Z,3.20
2022-11-13T08:53:58.594Z,3.30
2022-11-13T08:56:28.041Z,3.40
2022-11-13T09:03:52.991Z,4.50
2022-11-13T09:06:21.014Z,5.50
2022-11-13T09:08:49.021Z,6.30
2022-11-13T09:11:17.216Z,7.00
2022-11-13T09:13:50.797Z,7.90
2022-11-13T09:16:21.188Z,8.70
2022-11-13T09:18:50.719Z,8.30
2022-11-13T09:21:19.168Z,7.40
2022-11-13T09:23:47.209Z,6.70
2022-11-13T09:26:15.288Z,6.30
2022-11-13T09:28:43.365Z,6.20
2022-11-13T09:31:12.798Z,3.70
2022-11-13T09:33:40.833Z,5.80
2022-11-13T09:36:12.722Z,5.70
2022-11-13T09:38:40.956Z,5.50
2022-11-13T09:41:12.344Z,5.50
2022-11-13T09:43:44.639Z,5.40
2022-11-13T09:46:21.787Z,5.40
2022-11-13T09:48:55.425Z,5.40
2022-11-13T09:51:28.476Z,6.20
2022-11-13T09:56:29.825Z,5.50
2022-11-13T09:59:03.384Z,5.50
2022-11-13T10:01:42.550Z,5.50
2022-11-13T10:04:14.587Z,5.70
2022-11-13T10:07:04.976Z,5.70
2022-11-13T10:09:39.779Z,5.90
2022-11-13T10:12:10.286Z,5.90
2022-11-13T10:14:45.653Z,6.00
2022-11-13T10:17:19.733Z,6.30
2022-11-13T10:19:56.494Z,6.50
2022-11-13T10:22:33.360Z,6.50
2022-11-13T10:25:14.889Z,6.70
2022-11-13T10:27:43.894Z,7.10
2022-11-13T10:30:17.339Z,7.70
2022-11-13T10:32:47.585Z,7.90
2022-11-13T10:35:34.110Z,9.10
2022-11-13T10:38:08.551Z,9.10
2022-11-13T10:40:39.486Z,9.70
2022-11-13T10:43:15.465Z,10.30
2022-11-13T10:45:44.854Z,10.60
2022-11-13T10:48:24.948Z,10.80
2022-11-13T10:50:58.950Z,10.80
2022-11-13T10:53:31.772Z,10.60
2022-11-13T10:56:01.309Z,10.20
2022-11-13T10:58:29.805Z,10.00
2022-11-13T11:00:58.132Z,9.60
2022-11-13T11:03:29.350Z,9.80
2022-11-13T11:05:59.275Z,10.80
2022-11-13T11:08:32.254Z,9.50
2022-11-13T11:11:19.233Z,9.40
2022-11-13T11:13:47.677Z,10.30
2022-11-13T11:16:21.491Z,9.70
2022-11-13T11:18:56.962Z,9.90
2022-11-13T11:21:28.615Z,9.90
2022-11-13T11:24:02.562Z,9.90
2022-11-13T11:26:35.196Z,9.80
2022-11-13T11:29:14.484Z,9.80
2022-11-13T11:31:59.791Z,10.70
2022-11-13T11:34:34.793Z,10.30
2022-11-13T11:37:14.611Z,9.60
2022-11-13T11:50:38.238Z,10.10
2022-11-13T13:39:15.574Z,11.20
2022-11-13T13:41:57.375Z,12.40
2022-11-13T13:45:32.692Z,11.70
2022-11-13T13:48:07.354Z,13.40
2022-11-13T13:50:57.709Z,13.80
2022-11-13T13:53:37.356Z,14.80
2022-11-13T13:56:14.940Z,15.20
2022-11-13T13:58:59.295Z,15.60
2022-11-13T14:01:35.854Z,14.60
2022-11-13T14:04:10.913Z,12.60
2022-11-13T14:06:50.560Z,12.70
2022-11-13T14:09:28.163Z,11.90
2022-11-13T14:13:00.177Z,11.90
2022-11-13T14:15:52.327Z,11.50
2022-11-13T14:18:28.353Z,12.20
2022-11-13T14:21:05.803Z,11.40
2022-11-13T14:23:45.448Z,10.80
2022-11-13T14:26:18.389Z,11.00
2022-11-13T14:28:53.920Z,10.00
2022-11-13T14:31:30.259Z,10.70
2022-11-13T14:34:09.769Z,10.70
2022-11-13T14:36:39.743Z,10.60
2022-11-13T14:39:16.467Z,11.10
2022-11-13T14:41:50.919Z,10.60
2022-11-13T14:44:30.965Z,10.50
2022-11-13T14:47:04.374Z,10.90
2022-11-13T14:49:36.041Z,11.20
2022-11-13T14:52:07.387Z,11.00
2022-11-13T14:55:07.995Z,11.10
2022-11-13T14:57:29.405Z,11.00
2022-11-13T15:00:11.644Z,10.60
2022-11-13T15:02:41.624Z,10.50
2022-11-13T15:05:10.233Z,9.60
2022-11-13T15:07:43.008Z,9.80
2022-11-13T15:10:15.198Z,9.60
2022-11-13T15:12:43.980Z,9.60
2022-11-13T15:15:16.907Z,9.40
2022-11-13T15:17:47.797Z,9.90
2022-11-13T15:20:18.449Z,9.10
2022-11-13T15:22:46.808Z,9.00
2022-11-13T15:25:16.664Z,10.80
2022-11-13T15:27:45.542Z,9.00
2022-11-13T15:30:14.727Z,8.90
2022-11-13T15:32:43.618Z,8.80
2022-11-13T15:35:17.045Z,10.80
2022-11-13T15:37:45.633Z,8.70
2022-11-13T15:40:15.286Z,8.60
2022-11-13T15:42:44.308Z,8.50
2022-11-13T15:45:16.764Z,6.30
2022-11-13T15:47:45.320Z,8.40
2022-11-13T15:50:16.596Z,9.40
2022-11-13T15:52:49.147Z,8.30
2022-11-13T15:55:23.833Z,8.20
2022-11-13T15:57:52.504Z,8.30
2022-11-13T16:00:25.004Z,10.10
2022-11-13T16:02:55.962Z,8.00
2022-11-13T16:05:31.802Z,8.10
2022-11-13T16:08:00.253Z,8.00
2022-11-13T16:10:28.652Z,9.30
2022-11-13T16:12:56.784Z,7.70
2022-11-13T16:15:26.810Z,7.80
2022-11-13T16:17:57.452Z,8.90
2022-11-13T16:20:26.142Z,8.20
2022-11-13T16:22:56.019Z,8.50
2022-11-13T16:25:24.331Z,7.10
2022-11-13T16:27:53.363Z,7.90
2022-11-13T16:30:23.368Z,9.30
2022-11-13T16:32:51.954Z,8.80
2022-11-13T16:35:21.226Z,8.20
2022-11-13T16:37:49.320Z,6.70
2022-11-13T16:40:25.643Z,7.70
2022-11-13T16:42:54.353Z,6.50
2022-11-13T16:45:23.405Z,6.50
2022-11-13T16:47:51.611Z,6.40
2022-11-13T16:50:24.165Z,6.80
2022-11-13T16:52:52.426Z,6.20
2022-11-13T16:55:22.121Z,6.40
2022-11-13T16:57:50.424Z,7.40
2022-11-13T17:00:20.461Z,8.10
2022-11-13T17:02:51.511Z,5.80
2022-11-13T17:05:20.794Z,8.00
2022-11-13T17:07:51.112Z,5.70
2022-11-13T17:10:32.211Z,5.60
2022-11-13T17:13:01.710Z,4.60
2022-11-13T17:15:30.069Z,5.60
2022-11-13T17:17:59.367Z,6.20
2022-11-13T17:20:27.929Z,5.50
2022-11-13T17:22:56.227Z,5.40
2022-11-13T17:25:28.226Z,7.30
2022-11-13T17:27:56.715Z,7.30
2022-11-13T17:30:25.062Z,5.80
2022-11-13T17:32:53.483Z,6.10
2022-11-13T17:35:22.011Z,6.20
2022-11-13T17:37:50.198Z,7.30
2022-11-13T17:40:18.408Z,5.40
2022-11-13T17:42:49.653Z,5.00
2022-11-13T17:45:17.870Z,5.60
2022-11-13T17:47:46.176Z,5.00
2022-11-13T17:50:15.184Z,6.10
2022-11-13T17:52:43.515Z,6.80
2022-11-13T17:55:14.152Z,5.70
2022-11-13T17:57:42.714Z,6.40
2022-11-13T18:00:13.467Z,6.80
2022-11-13T18:02:41.646Z,4.60
2022-11-13T18:05:10.263Z,6.00
2022-11-13T18:07:40.093Z,4.40
2022-11-13T18:10:10.999Z,4.60
2022-11-13T18:12:39.319Z,4.40
2022-11-13T18:15:08.174Z,5.60
2022-11-13T18:17:37.993Z,4.40
2022-11-13T18:20:06.840Z,4.40
2022-11-13T18:22:34.937Z,4.40
2022-11-13T18:25:03.388Z,6.80
2022-11-13T18:27:31.728Z,6.40
2022-11-13T18:29:59.927Z,4.20
2022-11-13T18:32:28.723Z,6.10
2022-11-13T18:34:58.165Z,4.30
2022-11-13T18:37:26.400Z,5.30
2022-11-13T18:39:54.559Z,4.80
2022-11-13T18:42:22.965Z,5.70
2022-11-13T18:44:51.345Z,6.40
2022-11-13T18:47:19.611Z,4.10
2022-11-13T18:49:48.127Z,6.60
2022-11-13T18:52:17.903Z,5.40
2022-11-13T18:54:46.347Z,5.40
2022-11-13T18:59:43.113Z,4.20
2022-11-13T19:02:13.048Z,6.40
2022-11-13T19:04:41.289Z,6.20
2022-11-13T19:07:12.132Z,4.10
2022-11-13T19:09:46.065Z,6.70
2022-11-13T19:12:14.244Z,5.20
2022-11-13T19:14:42.380Z,4.10
2022-11-13T19:17:10.940Z,4.40
2022-11-13T19:19:40.929Z,4.20
2022-11-13T19:22:08.978Z,4.20
2022-11-13T19:24:37.004Z,4.60
2022-11-13T19:27:06.533Z,4.20
2022-11-13T19:29:34.735Z,4.80
2022-11-13T19:32:02.921Z,4.20
2022-11-13T19:34:31.174Z,5.80
2022-11-13T19:36:59.391Z,4.20
2022-11-13T19:39:27.672Z,4.20
2022-11-13T19:44:27.507Z,4.20
2022-11-13T19:54:21.514Z,4.30
2022-11-13T20:01:48.697Z,1.80
2022-11-13T20:06:45.601Z,4.10
2022-11-13T20:11:42.849Z,4.10
2022-11-13T20:14:12.614Z,5.60
2022-11-13T20:19:11.132Z,4.10
2022-11-13T20:21:40.507Z,5.40
2022-11-13T20:24:11.195Z,5.30
2022-11-13T20:31:36.528Z,4.00
2022-11-13T20:34:04.689Z,5.40
2022-11-13T20:36:34.306Z,6.00
2022-11-13T20:39:08.099Z,5.80
2022-11-13T20:41:37.824Z,6.00
2022-11-13T20:44:06.530Z,4.30
2022-11-13T20:46:34.922Z,4.40
2022-11-13T20:49:03.450Z,5.30
2022-11-13T20:51:33.256Z,4.70
2022-11-13T20:54:01.890Z,6.60
2022-11-13T20:56:30.046Z,4.60
2022-11-13T20:58:58.592Z,4.70
2022-11-13T21:01:27.590Z,4.80
2022-11-13T21:03:56.141Z,4.90
2022-11-13T21:06:26.303Z,5.00
2022-11-13T21:08:56.722Z,4.90
2022-11-13T21:11:26.529Z,5.40
2022-11-13T21:13:56.696Z,6.00
2022-11-13T21:16:27.703Z,6.40
2022-11-13T21:18:57.195Z,6.70
2022-11-13T21:21:28.875Z,6.30
2022-11-13T21:23:59.403Z,4.90
2022-11-13T21:26:29.098Z,7.70
2022-11-13T21:28:58.030Z,4.90
2022-11-13T21:31:26.357Z,7.60
2022-11-13T21:33:55.077Z,4.70
2022-11-13T21:36:25.917Z,6.20
2022-11-13T21:38:55.356Z,5.80
2022-11-13T21:41:26.287Z,6.50
2022-11-13T21:43:58.327Z,7.30
2022-11-13T21:46:28.302Z,6.80
2022-11-13T21:48:57.776Z,4.80
2022-11-13T21:51:26.160Z,6.80
2022-11-13T21:53:54.313Z,7.10
2022-11-13T21:56:24.403Z,6.70
2022-11-13T21:58:52.749Z,5.30
2022-11-13T22:01:21.279Z,4.80
2022-11-13T22:06:22.134Z,4.90
2022-11-13T22:08:57.587Z,4.90
2022-11-13T22:11:29.702Z,4.90
2022-11-13T22:13:58.790Z,4.80
2022-11-13T22:16:28.924Z,4.80
2022-11-13T22:18:58.292Z,4.80
2022-11-13T22:21:27.560Z,4.70
2022-11-13T22:23:56.111Z,4.60
2022-11-13T22:26:27.637Z,4.50
2022-11-13T22:28:56.537Z,4.40
2022-11-13T22:31:26.450Z,4.30
2022-11-13T22:33:55.467Z,4.30
2022-11-13T22:36:25.207Z,4.30
2022-11-13T22:41:24.115Z,4.20
2022-11-13T22:43:55.459Z,3.90
2022-11-13T22:46:26.466Z,3.70
2022-11-13T22:48:55.972Z,3.50
2022-11-13T22:51:26.196Z,3.60
2022-11-13T22:53:56.933Z,3.50
2022-11-13T22:56:27.009Z,3.50
2022-11-13T22:58:57.942Z,3.50
2022-11-13T23:01:28.908Z,3.40
2022-11-13T23:03:58.145Z,3.40
2022-11-13T23:06:28.162Z,4.30
2022-11-13T23:08:56.308Z,5.30
2022-11-13T23:11:25.899Z,3.40
2022-11-13T23:13:56.916Z,3.30
2022-11-13T23:16:26.714Z,3.40
2022-11-13T23:18:56.768Z,3.30
2022-11-13T23:21:26.183Z,3.40
2022-11-13T23:23:54.687Z,3.40
2022-11-13T23:26:23.626Z,3.40
2022-11-13T23:28:51.626Z,3.30
2022-11-13T23:31:21.835Z,3.30
2022-11-13T23:33:50.142Z,3.20
2022-11-13T23:36:19.138Z,3.10
2022-11-13T23:38:47.318Z,3.00
2022-11-13T23:41:15.628Z,3.00
2022-11-13T23:46:32.988Z,2.90
2022-11-13T23:49:01.046Z,2.90
2022-11-13T23:51:29.095Z,2.90
2022-11-13T23:53:57.143Z,2.80
2022-11-13T23:56:25.228Z,2.80
2022-11-13T23:58:53.841Z,2.80
